sensor_id;sensor_type;location;lat;lon;timestamp;P1;durP1;ratioP1;P2;durP2;ratioP2
71353;SDS011;59393;51.652;4.864;2022-12-16T00:01:12;31.17;;;13.13;;
71353;SDS011;59393;51.652;4.864;2022-12-16T00:03:39;20.50;;;10.48;;
71353;SDS011;59393;51.652;4.864;2022-12-16T00:06:06;32.10;;;14.35;;
71353;SDS011;59393;51.652;4.864;2022-12-16T00:08:32;30.70;;;12.88;;
71353;SDS011;59393;51.652;4.864;2022-12-16T00:10:59;28.83;;;12.13;;
71353;SDS011;59393;51.652;4.864;2022-12-16T00:13:26;24.77;;;11.97;;
71353;SDS011;59393;51.652;4.864;2022-12-16T00:15:52;40.70;;;13.50;;
71353;SDS011;59393;51.652;4.864;2022-12-16T00:18:18;27.35;;;10.82;;
71353;SDS011;59393;51.652;4.864;2022-12-16T00:20:48;31.60;;;11.43;;
71353;SDS011;59393;51.652;4.864;2022-12-16T00:23:14;32.67;;;12.82;;
71353;SDS011;59393;51.652;4.864;2022-12-16T00:25:41;29.17;;;13.57;;
71353;SDS011;59393;51.652;4.864;2022-12-16T00:28:08;28.45;;;12.48;;
71353;SDS011;59393;51.652;4.864;2022-12-16T00:30:34;35.00;;;13.40;;
71353;SDS011;59393;51.652;4.864;2022-12-16T00:33:00;29.95;;;13.85;;
71353;SDS011;59393;51.652;4.864;2022-12-16T00:35:26;26.40;;;12.20;;
71353;SDS011;59393;51.652;4.864;2022-12-16T00:37:52;29.27;;;12.90;;
71353;SDS011;59393;51.652;4.864;2022-12-16T00:40:18;28.00;;;12.80;;
71353;SDS011;59393;51.652;4.864;2022-12-16T00:42:43;24.00;;;12.20;;
71353;SDS011;59393;51.652;4.864;2022-12-16T00:45:09;27.55;;;11.93;;
71353;SDS011;59393;51.652;4.864;2022-12-16T00:47:35;31.27;;;11.93;;
71353;SDS011;59393;51.652;4.864;2022-12-16T00:50:01;25.10;;;11.18;;
71353;SDS011;59393;51.652;4.864;2022-12-16T00:52:27;28.60;;;12.63;;
71353;SDS011;59393;51.652;4.864;2022-12-16T00:54:53;25.60;;;12.20;;
71353;SDS011;59393;51.652;4.864;2022-12-16T00:57:19;35.63;;;12.75;;
71353;SDS011;59393;51.652;4.864;2022-12-16T00:59:45;28.45;;;11.32;;
71353;SDS011;59393;51.652;4.864;2022-12-16T01:02:11;26.63;;;12.18;;
71353;SDS011;59393;51.652;4.864;2022-12-16T01:04:39;28.90;;;13.00;;
71353;SDS011;59393;51.652;4.864;2022-12-16T01:07:05;29.02;;;11.98;;
71353;SDS011;59393;51.652;4.864;2022-12-16T01:09:31;24.08;;;11.02;;
71353;SDS011;59393;51.652;4.864;2022-12-16T01:11:57;32.92;;;13.20;;
71353;SDS011;59393;51.652;4.864;2022-12-16T01:14:23;33.33;;;12.17;;
71353;SDS011;59393;51.652;4.864;2022-12-16T01:16:49;29.98;;;13.38;;
71353;SDS011;59393;51.652;4.864;2022-12-16T01:19:16;27.65;;;12.60;;
71353;SDS011;59393;51.652;4.864;2022-12-16T01:21:41;25.88;;;10.85;;
71353;SDS011;59393;51.652;4.864;2022-12-16T01:24:07;29.75;;;10.82;;
71353;SDS011;59393;51.652;4.864;2022-12-16T01:26:33;36.33;;;11.90;;
71353;SDS011;59393;51.652;4.864;2022-12-16T01:28:59;29.65;;;12.68;;
71353;SDS011;59393;51.652;4.864;2022-12-16T01:31:25;27.95;;;12.15;;
71353;SDS011;59393;51.652;4.864;2022-12-16T01:33:51;25.27;;;10.05;;
71353;SDS011;59393;51.652;4.864;2022-12-16T01:36:18;24.00;;;9.97;;
71353;SDS011;59393;51.652;4.864;2022-12-16T01:38:44;18.70;;;8.68;;
71353;SDS011;59393;51.652;4.864;2022-12-16T01:41:10;19.15;;;8.85;;
71353;SDS011;59393;51.652;4.864;2022-12-16T01:43:37;22.13;;;8.77;;
71353;SDS011;59393;51.652;4.864;2022-12-16T01:51:33;25.58;;;9.02;;
71353;SDS011;59393;51.652;4.864;2022-12-16T01:53:56;19.38;;;8.02;;
71353;SDS011;59393;51.652;4.864;2022-12-16T01:56:23;16.88;;;7.85;;
71353;SDS011;59393;51.652;4.864;2022-12-16T01:58:49;16.50;;;7.45;;
71353;SDS011;59393;51.652;4.864;2022-12-16T02:01:16;19.07;;;7.90;;
71353;SDS011;59393;51.652;4.864;2022-12-16T02:03:42;23.10;;;9.00;;
71353;SDS011;59393;51.652;4.864;2022-12-16T02:06:08;22.83;;;8.57;;
71353;SDS011;59393;51.652;4.864;2022-12-16T02:08:34;20.05;;;7.85;;
71353;SDS011;59393;51.652;4.864;2022-12-16T02:18:42;17.63;;;7.18;;
71353;SDS011;59393;51.652;4.864;2022-12-16T02:31:18;21.70;;;8.27;;
71353;SDS011;59393;51.652;4.864;2022-12-16T02:36:35;16.73;;;7.13;;
71353;SDS011;59393;51.652;4.864;2022-12-16T02:39:13;17.98;;;7.15;;
71353;SDS011;59393;51.652;4.864;2022-12-16T02:41:47;16.20;;;7.03;;
71353;SDS011;59393;51.652;4.864;2022-12-16T02:44:15;23.55;;;7.50;;
71353;SDS011;59393;51.652;4.864;2022-12-16T02:46:43;25.15;;;7.35;;
71353;SDS011;59393;51.652;4.864;2022-12-16T02:51:42;25.25;;;9.40;;
71353;SDS011;59393;51.652;4.864;2022-12-16T02:54:09;18.35;;;8.50;;
71353;SDS011;59393;51.652;4.864;2022-12-16T02:56:47;27.40;;;9.63;;
71353;SDS011;59393;51.652;4.864;2022-12-16T03:02:04;24.85;;;8.60;;
71353;SDS011;59393;51.652;4.864;2022-12-16T03:07:02;24.85;;;9.48;;
71353;SDS011;59393;51.652;4.864;2022-12-16T03:09:30;25.40;;;9.32;;
71353;SDS011;59393;51.652;4.864;2022-12-16T03:11:57;24.50;;;10.13;;
71353;SDS011;59393;51.652;4.864;2022-12-16T03:14:26;28.35;;;9.88;;
71353;SDS011;59393;51.652;4.864;2022-12-16T03:16:53;23.55;;;9.32;;
71353;SDS011;59393;51.652;4.864;2022-12-16T03:19:20;25.08;;;9.68;;
71353;SDS011;59393;51.652;4.864;2022-12-16T03:21:51;19.70;;;8.98;;
71353;SDS011;59393;51.652;4.864;2022-12-16T03:24:19;24.93;;;10.70;;
71353;SDS011;59393;51.652;4.864;2022-12-16T03:31:45;29.35;;;9.05;;
71353;SDS011;59393;51.652;4.864;2022-12-16T03:34:16;27.75;;;9.32;;
71353;SDS011;59393;51.652;4.864;2022-12-16T03:36:48;24.83;;;9.00;;
71353;SDS011;59393;51.652;4.864;2022-12-16T03:39:16;19.42;;;8.70;;
71353;SDS011;59393;51.652;4.864;2022-12-16T03:41:44;28.55;;;9.88;;
71353;SDS011;59393;51.652;4.864;2022-12-16T03:44:12;25.05;;;7.28;;
71353;SDS011;59393;51.652;4.864;2022-12-16T03:46:38;21.15;;;8.98;;
71353;SDS011;59393;51.652;4.864;2022-12-16T03:49:04;24.27;;;8.60;;
71353;SDS011;59393;51.652;4.864;2022-12-16T03:51:30;19.90;;;8.30;;
71353;SDS011;59393;51.652;4.864;2022-12-16T03:53:56;24.90;;;8.55;;
71353;SDS011;59393;51.652;4.864;2022-12-16T03:56:22;22.23;;;8.45;;
71353;SDS011;59393;51.652;4.864;2022-12-16T03:58:47;17.73;;;7.73;;
71353;SDS011;59393;51.652;4.864;2022-12-16T04:01:13;20.83;;;7.18;;
71353;SDS011;59393;51.652;4.864;2022-12-16T04:03:39;15.45;;;6.38;;
71353;SDS011;59393;51.652;4.864;2022-12-16T04:06:06;16.50;;;7.05;;
71353;SDS011;59393;51.652;4.864;2022-12-16T04:08:32;11.60;;;5.65;;
71353;SDS011;59393;51.652;4.864;2022-12-16T04:10:58;10.53;;;3.50;;
71353;SDS011;59393;51.652;4.864;2022-12-16T04:13:42;9.05;;;3.42;;
71353;SDS011;59393;51.652;4.864;2022-12-16T04:16:27;13.02;;;3.70;;
71353;SDS011;59393;51.652;4.864;2022-12-16T04:19:18;4.70;;;2.10;;
71353;SDS011;59393;51.652;4.864;2022-12-16T04:22:03;11.60;;;2.55;;
71353;SDS011;59393;51.652;4.864;2022-12-16T04:24:47;5.97;;;2.60;;
71353;SDS011;59393;51.652;4.864;2022-12-16T04:27:13;10.48;;;2.30;;
71353;SDS011;59393;51.652;4.864;2022-12-16T04:29:48;5.93;;;2.08;;
71353;SDS011;59393;51.652;4.864;2022-12-16T04:32:33;5.55;;;1.73;;
71353;SDS011;59393;51.652;4.864;2022-12-16T04:35:17;7.85;;;1.92;;
71353;SDS011;59393;51.652;4.864;2022-12-16T04:38:02;4.60;;;1.60;;
71353;SDS011;59393;51.652;4.864;2022-12-16T04:40:47;7.55;;;1.60;;
71353;SDS011;59393;51.652;4.864;2022-12-16T04:43:31;7.25;;;1.88;;
71353;SDS011;59393;51.652;4.864;2022-12-16T04:46:16;7.90;;;1.95;;
71353;SDS011;59393;51.652;4.864;2022-12-16T04:49:01;2.30;;;0.93;;
71353;SDS011;59393;51.652;4.864;2022-12-16T04:51:45;7.50;;;1.60;;
71353;SDS011;59393;51.652;4.864;2022-12-16T04:54:30;3.30;;;1.10;;
71353;SDS011;59393;51.652;4.864;2022-12-16T04:57:25;7.80;;;1.55;;
71353;SDS011;59393;51.652;4.864;2022-12-16T05:00:10;3.85;;;1.23;;
71353;SDS011;59393;51.652;4.864;2022-12-16T05:02:55;4.00;;;1.25;;
71353;SDS011;59393;51.652;4.864;2022-12-16T05:05:39;4.73;;;1.30;;
71353;SDS011;59393;51.652;4.864;2022-12-16T05:08:24;3.92;;;1.17;;
71353;SDS011;59393;51.652;4.864;2022-12-16T05:11:08;5.95;;;1.25;;
71353;SDS011;59393;51.652;4.864;2022-12-16T05:13:53;4.10;;;1.08;;
71353;SDS011;59393;51.652;4.864;2022-12-16T05:16:37;5.43;;;1.23;;
71353;SDS011;59393;51.652;4.864;2022-12-16T05:19:22;4.77;;;1.37;;
71353;SDS011;59393;51.652;4.864;2022-12-16T05:22:06;4.28;;;1.30;;
71353;SDS011;59393;51.652;4.864;2022-12-16T05:24:51;8.13;;;1.67;;
71353;SDS011;59393;51.652;4.864;2022-12-16T05:27:52;4.57;;;1.38;;
71353;SDS011;59393;51.652;4.864;2022-12-16T05:30:36;7.43;;;1.63;;
71353;SDS011;59393;51.652;4.864;2022-12-16T05:33:21;8.40;;;2.00;;
71353;SDS011;59393;51.652;4.864;2022-12-16T05:36:06;9.60;;;2.33;;
71353;SDS011;59393;51.652;4.864;2022-12-16T05:38:50;8.18;;;1.92;;
71353;SDS011;59393;51.652;4.864;2022-12-16T05:41:35;5.88;;;1.90;;
71353;SDS011;59393;51.652;4.864;2022-12-16T05:44:20;7.07;;;1.98;;
71353;SDS011;59393;51.652;4.864;2022-12-16T05:47:04;9.40;;;1.93;;
71353;SDS011;59393;51.652;4.864;2022-12-16T05:49:49;4.95;;;1.85;;
71353;SDS011;59393;51.652;4.864;2022-12-16T05:52:34;8.93;;;2.08;;
71353;SDS011;59393;51.652;4.864;2022-12-16T05:55:18;5.28;;;1.63;;
71353;SDS011;59393;51.652;4.864;2022-12-16T05:58:03;6.97;;;2.08;;
71353;SDS011;59393;51.652;4.864;2022-12-16T06:00:47;7.37;;;1.53;;
71353;SDS011;59393;51.652;4.864;2022-12-16T06:03:32;7.60;;;2.20;;
71353;SDS011;59393;51.652;4.864;2022-12-16T06:06:16;7.03;;;2.00;;
71353;SDS011;59393;51.652;4.864;2022-12-16T06:09:01;6.68;;;2.58;;
71353;SDS011;59393;51.652;4.864;2022-12-16T06:11:46;5.15;;;2.10;;
71353;SDS011;59393;51.652;4.864;2022-12-16T06:14:30;8.77;;;2.93;;
71353;SDS011;59393;51.652;4.864;2022-12-16T06:17:15;9.00;;;3.22;;
71353;SDS011;59393;51.652;4.864;2022-12-16T06:19:59;8.50;;;2.72;;
71353;SDS011;59393;51.652;4.864;2022-12-16T06:22:49;11.00;;;2.55;;
71353;SDS011;59393;51.652;4.864;2022-12-16T06:25:34;7.05;;;2.50;;
71353;SDS011;59393;51.652;4.864;2022-12-16T06:28:18;9.17;;;2.40;;
71353;SDS011;59393;51.652;4.864;2022-12-16T06:31:03;10.85;;;3.00;;
71353;SDS011;59393;51.652;4.864;2022-12-16T06:33:47;10.25;;;2.88;;
71353;SDS011;59393;51.652;4.864;2022-12-16T06:36:32;14.48;;;2.83;;
71353;SDS011;59393;51.652;4.864;2022-12-16T06:39:16;7.70;;;2.50;;
71353;SDS011;59393;51.652;4.864;2022-12-16T06:42:01;9.07;;;3.40;;
71353;SDS011;59393;51.652;4.864;2022-12-16T06:44:46;7.90;;;3.10;;
71353;SDS011;59393;51.652;4.864;2022-12-16T06:47:30;12.38;;;2.83;;
71353;SDS011;59393;51.652;4.864;2022-12-16T06:50:15;7.65;;;2.55;;
71353;SDS011;59393;51.652;4.864;2022-12-16T06:52:59;8.07;;;2.95;;
71353;SDS011;59393;51.652;4.864;2022-12-16T06:55:44;12.60;;;2.53;;
71353;SDS011;59393;51.652;4.864;2022-12-16T06:58:28;9.70;;;3.00;;
71353;SDS011;59393;51.652;4.864;2022-12-16T07:01:13;9.20;;;2.53;;
71353;SDS011;59393;51.652;4.864;2022-12-16T07:03:57;10.52;;;2.70;;
71353;SDS011;59393;51.652;4.864;2022-12-16T07:06:42;8.07;;;2.85;;
71353;SDS011;59393;51.652;4.864;2022-12-16T07:09:26;10.37;;;3.53;;
71353;SDS011;59393;51.652;4.864;2022-12-16T07:12:11;11.65;;;3.33;;
71353;SDS011;59393;51.652;4.864;2022-12-16T07:14:55;9.00;;;3.40;;
71353;SDS011;59393;51.652;4.864;2022-12-16T07:17:40;9.90;;;3.45;;
71353;SDS011;59393;51.652;4.864;2022-12-16T07:20:25;10.30;;;4.15;;
71353;SDS011;59393;51.652;4.864;2022-12-16T07:23:09;8.37;;;3.20;;
71353;SDS011;59393;51.652;4.864;2022-12-16T07:25:54;9.68;;;3.42;;
71353;SDS011;59393;51.652;4.864;2022-12-16T07:28:43;8.60;;;3.10;;
71353;SDS011;59393;51.652;4.864;2022-12-16T07:31:27;13.48;;;4.13;;
71353;SDS011;59393;51.652;4.864;2022-12-16T07:34:12;14.77;;;4.00;;
71353;SDS011;59393;51.652;4.864;2022-12-16T07:36:56;10.20;;;3.30;;
71353;SDS011;59393;51.652;4.864;2022-12-16T07:39:41;12.55;;;4.15;;
71353;SDS011;59393;51.652;4.864;2022-12-16T07:42:25;9.88;;;3.95;;
71353;SDS011;59393;51.652;4.864;2022-12-16T07:45:10;10.32;;;4.00;;
71353;SDS011;59393;51.652;4.864;2022-12-16T07:47:54;10.43;;;4.10;;
71353;SDS011;59393;51.652;4.864;2022-12-16T07:50:40;8.40;;;3.23;;
71353;SDS011;59393;51.652;4.864;2022-12-16T07:53:24;9.55;;;2.78;;
71353;SDS011;59393;51.652;4.864;2022-12-16T07:56:12;9.57;;;3.67;;
71353;SDS011;59393;51.652;4.864;2022-12-16T07:58:57;10.27;;;3.33;;
71353;SDS011;59393;51.652;4.864;2022-12-16T08:01:41;11.00;;;3.03;;
71353;SDS011;59393;51.652;4.864;2022-12-16T08:04:25;9.00;;;3.17;;
71353;SDS011;59393;51.652;4.864;2022-12-16T08:07:10;10.35;;;3.45;;
71353;SDS011;59393;51.652;4.864;2022-12-16T08:09:54;12.43;;;3.95;;
71353;SDS011;59393;51.652;4.864;2022-12-16T08:12:39;8.45;;;3.38;;
71353;SDS011;59393;51.652;4.864;2022-12-16T08:15:23;7.22;;;2.90;;
71353;SDS011;59393;51.652;4.864;2022-12-16T08:18:08;9.07;;;3.13;;
71353;SDS011;59393;51.652;4.864;2022-12-16T08:21:06;9.90;;;3.75;;
71353;SDS011;59393;51.652;4.864;2022-12-16T08:23:51;8.88;;;3.17;;
71353;SDS011;59393;51.652;4.864;2022-12-16T08:26:36;15.07;;;4.75;;
71353;SDS011;59393;51.652;4.864;2022-12-16T08:29:20;16.80;;;4.60;;
71353;SDS011;59393;51.652;4.864;2022-12-16T08:32:05;11.90;;;4.07;;
71353;SDS011;59393;51.652;4.864;2022-12-16T08:34:49;15.98;;;4.47;;
71353;SDS011;59393;51.652;4.864;2022-12-16T08:37:41;11.10;;;3.90;;
71353;SDS011;59393;51.652;4.864;2022-12-16T08:40:26;14.45;;;3.35;;
71353;SDS011;59393;51.652;4.864;2022-12-16T08:43:10;13.50;;;3.78;;
71353;SDS011;59393;51.652;4.864;2022-12-16T08:45:55;10.70;;;3.60;;
71353;SDS011;59393;51.652;4.864;2022-12-16T08:48:39;9.18;;;2.92;;
71353;SDS011;59393;51.652;4.864;2022-12-16T08:51:24;8.48;;;3.35;;
71353;SDS011;59393;51.652;4.864;2022-12-16T08:54:11;7.45;;;2.45;;
71353;SDS011;59393;51.652;4.864;2022-12-16T08:56:55;8.23;;;2.15;;
71353;SDS011;59393;51.652;4.864;2022-12-16T08:59:40;8.60;;;2.43;;
71353;SDS011;59393;51.652;4.864;2022-12-16T09:02:24;7.00;;;2.20;;
71353;SDS011;59393;51.652;4.864;2022-12-16T09:05:09;8.80;;;2.85;;
71353;SDS011;59393;51.652;4.864;2022-12-16T09:08:02;9.20;;;2.85;;
71353;SDS011;59393;51.652;4.864;2022-12-16T09:10:47;10.20;;;2.00;;
71353;SDS011;59393;51.652;4.864;2022-12-16T09:13:32;9.30;;;2.47;;
71353;SDS011;59393;51.652;4.864;2022-12-16T09:16:16;7.43;;;1.98;;
71353;SDS011;59393;51.652;4.864;2022-12-16T09:19:00;6.50;;;2.17;;
71353;SDS011;59393;51.652;4.864;2022-12-16T09:21:45;15.23;;;2.35;;
71353;SDS011;59393;51.652;4.864;2022-12-16T09:24:29;5.68;;;2.10;;
71353;SDS011;59393;51.652;4.864;2022-12-16T09:27:14;5.40;;;1.93;;
71353;SDS011;59393;51.652;4.864;2022-12-16T09:29:58;5.78;;;1.70;;
71353;SDS011;59393;51.652;4.864;2022-12-16T09:32:43;8.52;;;1.73;;
71353;SDS011;59393;51.652;4.864;2022-12-16T09:35:28;4.55;;;1.42;;
71353;SDS011;59393;51.652;4.864;2022-12-16T09:38:13;5.22;;;1.80;;
71353;SDS011;59393;51.652;4.864;2022-12-16T09:40:58;11.17;;;2.00;;
71353;SDS011;59393;51.652;4.864;2022-12-16T09:49:40;10.05;;;1.88;;
71353;SDS011;59393;51.652;4.864;2022-12-16T09:52:26;4.07;;;1.50;;
71353;SDS011;59393;51.652;4.864;2022-12-16T09:55:22;5.50;;;1.83;;
71353;SDS011;59393;51.652;4.864;2022-12-16T09:58:09;8.30;;;2.78;;
71353;SDS011;59393;51.652;4.864;2022-12-16T10:00:55;6.68;;;2.17;;
71353;SDS011;59393;51.652;4.864;2022-12-16T10:03:39;11.90;;;2.05;;
71353;SDS011;59393;51.652;4.864;2022-12-16T10:09:23;4.97;;;1.73;;
71353;SDS011;59393;51.652;4.864;2022-12-16T10:15:19;11.10;;;2.45;;
71353;SDS011;59393;51.652;4.864;2022-12-16T10:17:59;9.32;;;2.70;;
71353;SDS011;59393;51.652;4.864;2022-12-16T10:20:48;8.15;;;2.63;;
71353;SDS011;59393;51.652;4.864;2022-12-16T10:23:55;12.77;;;2.20;;
71353;SDS011;59393;51.652;4.864;2022-12-16T10:26:59;10.50;;;2.50;;
71353;SDS011;59393;51.652;4.864;2022-12-16T10:29:45;5.95;;;2.38;;
71353;SDS011;59393;51.652;4.864;2022-12-16T10:32:40;2.75;;;1.10;;
71353;SDS011;59393;51.652;4.864;2022-12-16T10:35:27;4.20;;;1.27;;
71353;SDS011;59393;51.652;4.864;2022-12-16T10:38:15;5.70;;;2.20;;
71353;SDS011;59393;51.652;4.864;2022-12-16T10:41:01;9.07;;;2.55;;
71353;SDS011;59393;51.652;4.864;2022-12-16T10:43:47;8.25;;;2.15;;
71353;SDS011;59393;51.652;4.864;2022-12-16T10:46:33;8.43;;;2.53;;
71353;SDS011;59393;51.652;4.864;2022-12-16T10:49:18;5.25;;;1.65;;
71353;SDS011;59393;51.652;4.864;2022-12-16T10:52:03;6.30;;;2.37;;
71353;SDS011;59393;51.652;4.864;2022-12-16T10:54:52;6.97;;;2.00;;
71353;SDS011;59393;51.652;4.864;2022-12-16T11:00:43;10.25;;;2.35;;
71353;SDS011;59393;51.652;4.864;2022-12-16T11:03:29;7.95;;;2.53;;
71353;SDS011;59393;51.652;4.864;2022-12-16T11:06:15;11.07;;;2.10;;
71353;SDS011;59393;51.652;4.864;2022-12-16T11:09:46;6.78;;;2.97;;
71353;SDS011;59393;51.652;4.864;2022-12-16T11:15:19;7.55;;;2.42;;
71353;SDS011;59393;51.652;4.864;2022-12-16T11:18:05;10.38;;;2.85;;
71353;SDS011;59393;51.652;4.864;2022-12-16T11:24:11;9.75;;;2.88;;
71353;SDS011;59393;51.652;4.864;2022-12-16T11:26:57;11.05;;;3.15;;
71353;SDS011;59393;51.652;4.864;2022-12-16T11:29:49;11.68;;;3.35;;
71353;SDS011;59393;51.652;4.864;2022-12-16T11:32:33;7.82;;;2.33;;
71353;SDS011;59393;51.652;4.864;2022-12-16T11:35:19;11.90;;;2.90;;
71353;SDS011;59393;51.652;4.864;2022-12-16T11:38:09;7.57;;;3.05;;
71353;SDS011;59393;51.652;4.864;2022-12-16T11:40:59;8.05;;;3.17;;
71353;SDS011;59393;51.652;4.864;2022-12-16T11:43:44;9.82;;;2.20;;
71353;SDS011;59393;51.652;4.864;2022-12-16T11:46:32;6.95;;;2.40;;
71353;SDS011;59393;51.652;4.864;2022-12-16T11:49:18;9.30;;;3.33;;
71353;SDS011;59393;51.652;4.864;2022-12-16T11:52:04;11.25;;;3.15;;
71353;SDS011;59393;51.652;4.864;2022-12-16T11:55:05;10.95;;;2.88;;
71353;SDS011;59393;51.652;4.864;2022-12-16T11:58:51;13.32;;;2.60;;
71353;SDS011;59393;51.652;4.864;2022-12-16T12:01:08;9.50;;;2.65;;
71353;SDS011;59393;51.652;4.864;2022-12-16T12:03:54;14.87;;;3.47;;
71353;SDS011;59393;51.652;4.864;2022-12-16T12:09:29;11.52;;;2.95;;
71353;SDS011;59393;51.652;4.864;2022-12-16T12:21:03;6.15;;;2.60;;
71353;SDS011;59393;51.652;4.864;2022-12-16T12:24:05;12.25;;;3.15;;
71353;SDS011;59393;51.652;4.864;2022-12-16T12:38:30;5.50;;;2.13;;
71353;SDS011;59393;51.652;4.864;2022-12-16T12:41:18;8.02;;;2.40;;
71353;SDS011;59393;51.652;4.864;2022-12-16T12:47:10;9.67;;;2.67;;
71353;SDS011;59393;51.652;4.864;2022-12-16T12:58:11;11.20;;;3.25;;
71353;SDS011;59393;51.652;4.864;2022-12-16T13:00:57;9.23;;;2.80;;
71353;SDS011;59393;51.652;4.864;2022-12-16T13:03:45;7.35;;;2.97;;
71353;SDS011;59393;51.652;4.864;2022-12-16T13:06:33;15.20;;;3.42;;
71353;SDS011;59393;51.652;4.864;2022-12-16T13:09:53;8.85;;;2.83;;
71353;SDS011;59393;51.652;4.864;2022-12-16T13:12:30;8.60;;;3.13;;
71353;SDS011;59393;51.652;4.864;2022-12-16T13:18:30;13.75;;;3.10;;
71353;SDS011;59393;51.652;4.864;2022-12-16T13:24:37;10.38;;;3.45;;
71353;SDS011;59393;51.652;4.864;2022-12-16T13:27:22;7.38;;;3.63;;
71353;SDS011;59393;51.652;4.864;2022-12-16T13:32:55;7.78;;;3.15;;
71353;SDS011;59393;51.652;4.864;2022-12-16T13:36:14;10.00;;;3.08;;
71353;SDS011;59393;51.652;4.864;2022-12-16T13:38:52;9.88;;;3.55;;
71353;SDS011;59393;51.652;4.864;2022-12-16T13:47:57;12.48;;;3.47;;
71353;SDS011;59393;51.652;4.864;2022-12-16T13:53:29;9.02;;;3.60;;
71353;SDS011;59393;51.652;4.864;2022-12-16T13:56:15;10.25;;;3.38;;
71353;SDS011;59393;51.652;4.864;2022-12-16T13:59:05;13.07;;;3.47;;
71353;SDS011;59393;51.652;4.864;2022-12-16T14:01:55;10.75;;;4.05;;
71353;SDS011;59393;51.652;4.864;2022-12-16T14:04:46;8.55;;;3.40;;
71353;SDS011;59393;51.652;4.864;2022-12-16T14:07:32;12.50;;;3.53;;
71353;SDS011;59393;51.652;4.864;2022-12-16T14:10:24;8.50;;;3.67;;
71353;SDS011;59393;51.652;4.864;2022-12-16T14:16:15;10.00;;;4.07;;
71353;SDS011;59393;51.652;4.864;2022-12-16T14:22:20;13.13;;;3.60;;
71353;SDS011;59393;51.652;4.864;2022-12-16T14:25:12;11.90;;;3.92;;
71353;SDS011;59393;51.652;4.864;2022-12-16T14:27:57;10.00;;;3.57;;
71353;SDS011;59393;51.652;4.864;2022-12-16T14:30:42;7.82;;;3.65;;
71353;SDS011;59393;51.652;4.864;2022-12-16T14:33:28;9.55;;;3.88;;
71353;SDS011;59393;51.652;4.864;2022-12-16T14:36:23;7.97;;;3.30;;
71353;SDS011;59393;51.652;4.864;2022-12-16T14:39:20;13.23;;;3.72;;
71353;SDS011;59393;51.652;4.864;2022-12-16T14:42:18;11.77;;;3.30;;
71353;SDS011;59393;51.652;4.864;2022-12-16T14:45:04;12.25;;;3.40;;
71353;SDS011;59393;51.652;4.864;2022-12-16T14:47:48;11.65;;;4.57;;
71353;SDS011;59393;51.652;4.864;2022-12-16T14:50:33;10.63;;;3.63;;
71353;SDS011;59393;51.652;4.864;2022-12-16T14:53:19;8.60;;;3.72;;
71353;SDS011;59393;51.652;4.864;2022-12-16T14:56:14;11.40;;;3.83;;
71353;SDS011;59393;51.652;4.864;2022-12-16T14:59:12;9.30;;;3.50;;
71353;SDS011;59393;51.652;4.864;2022-12-16T15:01:57;10.27;;;3.17;;
71353;SDS011;59393;51.652;4.864;2022-12-16T15:04:43;11.50;;;3.15;;
71353;SDS011;59393;51.652;4.864;2022-12-16T15:07:28;8.88;;;3.60;;
71353;SDS011;59393;51.652;4.864;2022-12-16T15:10:19;17.10;;;3.63;;
71353;SDS011;59393;51.652;4.864;2022-12-16T15:13:09;10.43;;;3.47;;
71353;SDS011;59393;51.652;4.864;2022-12-16T15:15:53;8.98;;;3.38;;
71353;SDS011;59393;51.652;4.864;2022-12-16T15:18:39;9.98;;;3.78;;
71353;SDS011;59393;51.652;4.864;2022-12-16T15:21:26;11.52;;;3.38;;
71353;SDS011;59393;51.652;4.864;2022-12-16T15:24:15;12.93;;;3.13;;
71353;SDS011;59393;51.652;4.864;2022-12-16T15:33:09;8.38;;;2.85;;
71353;SDS011;59393;51.652;4.864;2022-12-16T15:36:02;8.48;;;3.60;;
71353;SDS011;59393;51.652;4.864;2022-12-16T15:38:47;13.17;;;3.43;;
71353;SDS011;59393;51.652;4.864;2022-12-16T15:41:33;9.82;;;3.70;;
71353;SDS011;59393;51.652;4.864;2022-12-16T15:44:21;11.35;;;3.88;;
71353;SDS011;59393;51.652;4.864;2022-12-16T15:47:27;8.27;;;2.97;;
71353;SDS011;59393;51.652;4.864;2022-12-16T15:50:14;9.10;;;3.20;;
71353;SDS011;59393;51.652;4.864;2022-12-16T15:56:03;8.95;;;3.03;;
71353;SDS011;59393;51.652;4.864;2022-12-16T15:58:48;9.35;;;3.13;;
71353;SDS011;59393;51.652;4.864;2022-12-16T16:01:38;10.10;;;3.45;;
71353;SDS011;59393;51.652;4.864;2022-12-16T16:04:29;8.55;;;3.53;;
71353;SDS011;59393;51.652;4.864;2022-12-16T16:10:18;12.00;;;4.03;;
71353;SDS011;59393;51.652;4.864;2022-12-16T16:13:03;9.75;;;3.65;;
71353;SDS011;59393;51.652;4.864;2022-12-16T16:15:48;10.85;;;3.50;;
71353;SDS011;59393;51.652;4.864;2022-12-16T16:18:40;10.20;;;3.63;;
71353;SDS011;59393;51.652;4.864;2022-12-16T16:21:25;10.00;;;3.53;;
71353;SDS011;59393;51.652;4.864;2022-12-16T16:24:11;10.63;;;3.70;;
71353;SDS011;59393;51.652;4.864;2022-12-16T16:26:56;11.13;;;3.50;;
71353;SDS011;59393;51.652;4.864;2022-12-16T16:29:42;15.07;;;3.55;;
71353;SDS011;59393;51.652;4.864;2022-12-16T16:32:27;11.18;;;3.50;;
71353;SDS011;59393;51.652;4.864;2022-12-16T16:35:12;10.83;;;3.50;;
71353;SDS011;59393;51.652;4.864;2022-12-16T16:37:56;11.10;;;3.92;;
71353;SDS011;59393;51.652;4.864;2022-12-16T16:40:52;9.95;;;3.50;;
71353;SDS011;59393;51.652;4.864;2022-12-16T16:43:36;9.05;;;3.53;;
71353;SDS011;59393;51.652;4.864;2022-12-16T16:46:27;11.75;;;3.67;;
71353;SDS011;59393;51.652;4.864;2022-12-16T16:49:32;8.97;;;4.00;;
71353;SDS011;59393;51.652;4.864;2022-12-16T16:52:18;10.63;;;4.35;;
71353;SDS011;59393;51.652;4.864;2022-12-16T16:55:03;8.65;;;3.33;;
71353;SDS011;59393;51.652;4.864;2022-12-16T16:57:48;16.35;;;4.20;;
71353;SDS011;59393;51.652;4.864;2022-12-16T17:00:33;11.85;;;4.10;;
71353;SDS011;59393;51.652;4.864;2022-12-16T17:03:17;12.03;;;4.70;;
71353;SDS011;59393;51.652;4.864;2022-12-16T17:06:02;9.45;;;4.07;;
71353;SDS011;59393;51.652;4.864;2022-12-16T17:08:47;12.48;;;3.90;;
71353;SDS011;59393;51.652;4.864;2022-12-16T17:11:31;11.85;;;4.35;;
71353;SDS011;59393;51.652;4.864;2022-12-16T17:14:18;13.35;;;4.32;;
71353;SDS011;59393;51.652;4.864;2022-12-16T17:17:02;12.87;;;4.30;;
71353;SDS011;59393;51.652;4.864;2022-12-16T17:19:47;12.75;;;4.13;;
71353;SDS011;59393;51.652;4.864;2022-12-16T17:22:32;10.52;;;5.00;;
71353;SDS011;59393;51.652;4.864;2022-12-16T17:25:17;14.45;;;4.57;;
71353;SDS011;59393;51.652;4.864;2022-12-16T17:28:02;13.10;;;4.35;;
71353;SDS011;59393;51.652;4.864;2022-12-16T17:30:47;10.97;;;3.77;;
71353;SDS011;59393;51.652;4.864;2022-12-16T17:33:32;11.80;;;4.25;;
71353;SDS011;59393;51.652;4.864;2022-12-16T17:36:16;8.25;;;3.38;;
71353;SDS011;59393;51.652;4.864;2022-12-16T17:39:01;11.10;;;4.40;;
71353;SDS011;59393;51.652;4.864;2022-12-16T17:41:46;15.32;;;4.82;;
71353;SDS011;59393;51.652;4.864;2022-12-16T17:44:30;13.83;;;4.67;;
71353;SDS011;59393;51.652;4.864;2022-12-16T17:47:23;10.98;;;4.72;;
71353;SDS011;59393;51.652;4.864;2022-12-16T17:50:07;11.10;;;4.80;;
71353;SDS011;59393;51.652;4.864;2022-12-16T17:52:53;12.65;;;4.97;;
71353;SDS011;59393;51.652;4.864;2022-12-16T17:55:38;13.90;;;5.88;;
71353;SDS011;59393;51.652;4.864;2022-12-16T17:58:29;15.00;;;5.10;;
71353;SDS011;59393;51.652;4.864;2022-12-16T18:01:15;13.15;;;6.00;;
71353;SDS011;59393;51.652;4.864;2022-12-16T18:03:59;15.55;;;5.88;;
71353;SDS011;59393;51.652;4.864;2022-12-16T18:06:44;16.88;;;6.55;;
71353;SDS011;59393;51.652;4.864;2022-12-16T18:09:28;14.00;;;5.65;;
71353;SDS011;59393;51.652;4.864;2022-12-16T18:12:13;17.90;;;5.83;;
71353;SDS011;59393;51.652;4.864;2022-12-16T18:15:14;18.95;;;6.25;;
71353;SDS011;59393;51.652;4.864;2022-12-16T18:17:59;17.42;;;7.40;;